Time;durP1;ratioP1;P1;durP2;ratioP2;P2;SDS_P1;SDS_P2;PMS_P1;PMS_P2;Temp;Humidity;BMP_temperature;BMP_pressure;BME280_temperature;BME280_humidity;BME280_pressure;Samples;Min_cycle;Max_cycle;Signal;HPM_P1;HPM_P2
2024/04/21 00:00:27;;;;;;;24.73;23.15;;;;;;;-143.39;100.00;64013.03;5377579;26;20081;-80
2024/04/21 00:02:57;;;;;;;25.02;23.38;;;;;;;-143.39;100.00;64013.03;5371231;26;20042;-80
2024/04/21 00:05:23;;;;;;;26.20;24.50;;;;;;;-143.39;100.00;64013.03;5378544;26;20000;-80
2024/04/21 00:07:52;;;;;;;25.50;23.70;;;;;;;-143.39;100.00;64013.03;5380627;26;20081;-80
2024/04/21 00:10:19;;;;;;;24.85;23.25;;;;;;;-143.39;100.00;64013.03;5378214;26;20454;-80
2024/04/21 00:12:49;;;;;;;24.30;22.77;;;;;;;-143.39;100.00;64013.03;5380096;26;19997;-80
2024/04/21 00:15:18;;;;;;;23.58;22.08;;;;;;;-143.39;100.00;64013.03;5378521;26;20441;-80
2024/04/21 00:17:47;;;;;;;23.95;22.10;;;;;;;-143.39;100.00;64013.03;5380417;26;20008;-79
2024/04/21 00:20:15;;;;;;;23.40;21.90;;;;;;;-143.39;100.00;64013.03;5378446;26;20844;-80
2024/04/21 00:22:44;;;;;;;25.70;24.00;;;;;;;-143.39;100.00;64013.03;5381217;26;20000;-80
2024/04/21 00:25:10;;;;;;;25.45;23.85;;;;;;;-143.39;100.00;64013.03;5379240;26;20076;-81
2024/04/21 00:27:46;;;;;;;25.13;23.23;;;;;;;-143.39;100.00;64013.03;5381659;26;20671;-80
2024/04/21 00:30:12;;;;;;;25.77;24.13;;;;;;;-143.39;100.00;64013.03;5378718;26;20028;-80
2024/04/21 00:32:45;;;;;;;25.77;23.83;;;;;;;-143.39;100.00;64013.03;5381340;26;20004;-80
2024/04/21 00:35:11;;;;;;;26.40;24.45;;;;;;;-143.39;100.00;64013.03;5379260;26;20015;-80
2024/04/21 00:37:40;;;;;;;26.25;24.55;;;;;;;-143.39;100.00;64013.03;5380982;26;20442;-81
2024/04/21 00:40:07;;;;;;;26.65;25.05;;;;;;;-143.39;100.00;64013.03;5378412;26;20094;-80
2024/04/21 00:42:35;;;;;;;28.83;26.92;;;;;;;-143.39;100.00;64013.03;5380322;26;20871;-80
2024/04/21 00:45:02;;;;;;;27.60;25.90;;;;;;;-143.39;100.00;64013.03;5377636;26;20134;-80
2024/04/21 00:47:30;;;;;;;26.92;25.13;;;;;;;-143.39;100.00;64013.03;5379687;26;20008;-80
2024/04/21 00:49:59;;;;;;;28.30;26.40;;;;;;;-143.39;100.00;64013.03;5377350;26;19996;-79
2024/04/21 00:52:28;;;;;;;24.77;23.27;;;;;;;-143.39;100.00;64013.03;5379299;26;20004;-79
2024/04/21 00:54:55;;;;;;;26.52;24.88;;;;;;;-143.39;100.00;64013.03;5377469;26;20004;-80
2024/04/21 00:57:24;;;;;;;28.38;26.05;;;;;;;-143.39;100.00;64013.03;5381412;26;20008;-80
2024/04/21 00:59:52;;;;;;;27.17;25.48;;;;;;;-143.39;100.00;64013.03;5378368;26;20004;-81
2024/04/21 01:02:20;;;;;;;26.42;24.83;;;;;;;-143.39;100.00;64013.03;5373947;26;20000;-81
2024/04/21 01:04:48;;;;;;;27.35;25.58;;;;;;;-143.39;100.00;64013.03;5377840;26;20015;-81
2024/04/21 01:07:19;;;;;;;26.90;24.92;;;;;;;-143.39;100.00;64013.03;5381090;26;20005;-81
2024/04/21 01:09:49;;;;;;;26.92;25.33;;;;;;;-143.39;100.00;64013.03;5377122;26;20436;-81
2024/04/21 01:12:18;;;;;;;28.25;26.52;;;;;;;-143.39;100.00;64013.03;5379904;26;20081;-81
2024/04/21 01:14:44;;;;;;;27.33;25.63;;;;;;;-143.39;100.00;64013.03;5377058;26;20000;-81
2024/04/21 01:17:13;;;;;;;25.73;24.17;;;;;;;-143.39;100.00;64013.03;5379973;26;20359;-80
2024/04/21 01:19:39;;;;;;;25.85;24.33;;;;;;;-143.39;100.00;64013.03;5377786;26;20343;-80
2024/04/21 01:22:07;;;;;;;28.65;26.85;;;;;;;-143.39;100.00;64013.03;5380598;26;20055;-80
2024/04/21 01:24:37;;;;;;;28.35;26.52;;;;;;;-143.39;100.00;64013.03;5377698;26;20508;-80
2024/04/21 01:27:06;;;;;;;27.10;25.40;;;;;;;-143.39;100.00;64013.03;5379532;26;20000;-81
2024/04/21 01:29:32;;;;;;;27.48;25.77;;;;;;;-143.39;100.00;64013.03;5377404;26;20004;-80
2024/04/21 01:32:01;;;;;;;27.80;26.20;;;;;;;-143.39;100.00;64013.03;5379757;26;20000;-80
2024/04/21 01:34:27;;;;;;;26.75;24.95;;;;;;;-143.39;100.00;64013.03;5377873;26;20004;-81
2024/04/21 01:36:56;;;;;;;24.35;22.85;;;;;;;-143.39;100.00;64013.03;5379612;26;20064;-80
2024/04/21 01:39:22;;;;;;;25.55;23.70;;;;;;;-143.39;100.00;64013.03;5377162;26;20018;-79
2024/04/21 01:41:53;;;;;;;26.45;24.65;;;;;;;-143.39;100.00;64013.03;5377931;26;20010;-80
2024/04/21 01:44:19;;;;;;;27.88;26.27;;;;;;;-143.39;100.00;64013.03;5375917;26;20008;-80
2024/04/21 01:46:48;;;;;;;26.77;25.27;;;;;;;-143.39;100.00;64013.03;5378602;26;20029;-80
2024/04/21 01:49:17;;;;;;;28.70;27.00;;;;;;;-143.39;100.00;64013.03;5376566;26;20000;-80
2024/04/21 01:51:43;;;;;;;27.02;25.42;;;;;;;-143.39;100.00;64013.03;5376370;26;20939;-80
2024/04/21 01:54:12;;;;;;;27.70;26.00;;;;;;;-143.39;100.00;64013.03;5379870;26;20000;-80
2024/04/21 01:56:38;;;;;;;27.45;25.75;;;;;;;-143.39;100.00;64013.03;5376455;26;20000;-80
2024/04/21 01:59:09;;;;;;;29.35;27.48;;;;;;;-143.39;100.00;64013.03;5378963;26;20001;-79
2024/04/21 02:01:37;;;;;;;27.30;25.60;;;;;;;-143.39;100.00;64013.03;5377005;26;20058;-80
2024/04/21 02:04:06;;;;;;;27.63;26.02;;;;;;;-143.39;100.00;64013.03;5373208;26;20502;-80
2024/04/21 02:06:32;;;;;;;27.33;25.25;;;;;;;-143.39;100.00;64013.03;5377115;26;20444;-79
2024/04/21 02:09:03;;;;;;;26.13;24.42;;;;;;;-143.39;100.00;64013.03;5379327;26;20012;-80
2024/04/21 02:11:29;;;;;;;24.85;23.25;;;;;;;-143.39;100.00;64013.03;5376499;26;20018;-79
2024/04/21 02:13:58;;;;;;;26.73;25.02;;;;;;;-143.39;100.00;64013.03;5379448;26;20004;-80
2024/04/21 02:16:27;;;;;;;26.98;25.27;;;;;;;-143.39;100.00;64013.03;5375450;26;20440;-79
2024/04/21 02:19:03;;;;;;;27.55;25.83;;;;;;;-143.39;100.00;64013.03;5379174;26;20016;-80
2024/04/21 02:21:30;;;;;;;27.75;25.58;;;;;;;-143.39;100.00;64013.03;5377054;26;20004;-80
2024/04/21 02:23:58;;;;;;;28.08;26.30;;;;;;;-143.39;100.00;64013.03;5379515;26;20461;-80
2024/04/21 02:26:26;;;;;;;32.03;29.98;;;;;;;-143.39;100.00;64013.03;5380124;26;20011;-80
2024/04/21 02:28:55;;;;;;;29.45;27.55;;;;;;;-143.39;100.00;64013.03;5383511;26;20727;-80
2024/04/21 02:31:22;;;;;;;25.70;23.90;;;;;;;-143.39;100.00;64013.03;5380747;26;20000;-80
2024/04/21 02:33:53;;;;;;;25.27;23.67;;;;;;;-143.39;100.00;64013.03;5383068;26;20008;-80
2024/04/21 02:36:19;;;;;;;29.60;27.17;;;;;;;-143.39;100.00;64013.03;5379385;26;20000;-80
2024/04/21 02:38:48;;;;;;;29.90;27.92;;;;;;;-143.39;100.00;64013.03;5381952;26;20000;-80
2024/04/21 02:41:15;;;;;;;28.15;26.45;;;;;;;-143.39;100.00;64013.03;5379604;26;20000;-80
2024/04/21 02:43:44;;;;;;;27.35;25.65;;;;;;;-143.39;100.00;64013.03;5381847;26;20000;-79
2024/04/21 02:46:12;;;;;;;30.85;28.85;;;;;;;-143.39;100.00;64013.03;5379913;26;20073;-80
2024/04/21 02:48:41;;;;;;;28.58;26.77;;;;;;;-143.39;100.00;64013.03;5382065;26;20081;-80
2024/04/21 02:51:10;;;;;;;26.58;24.90;;;;;;;-143.39;100.00;64013.03;5380261;26;20765;-80
2024/04/21 02:53:39;;;;;;;26.85;25.17;;;;;;;-143.39;100.00;64013.03;5382445;26;20575;-79
2024/04/21 02:56:05;;;;;;;27.00;25.13;;;;;;;-143.39;100.00;64013.03;5379726;26;20000;-80
2024/04/21 02:58:34;;;;;;;24.92;23.33;;;;;;;-143.39;100.00;64013.03;5381915;26;20012;-80
2024/04/21 03:01:04;;;;;;;26.85;25.15;;;;;;;-143.39;100.00;64013.03;5379228;26;20484;-80
2024/04/21 03:03:33;;;;;;;27.48;25.88;;;;;;;-143.39;100.00;64013.03;5374061;26;20005;-80
2024/04/21 03:05:59;;;;;;;26.33;24.63;;;;;;;-143.39;100.00;64013.03;5379686;26;20081;-79
2024/04/21 03:08:31;;;;;;;26.00;24.40;;;;;;;-143.39;100.00;64013.03;5382644;26;20008;-81
2024/04/21 03:10:57;;;;;;;26.10;24.50;;;;;;;-143.39;100.00;64013.03;5380690;26;20008;-80
2024/04/21 03:13:26;;;;;;;27.17;25.48;;;;;;;-143.39;100.00;64013.03;5382361;26;20001;-80
2024/04/21 03:15:52;;;;;;;27.92;26.15;;;;;;;-143.39;100.00;64013.03;5348743;26;20093;-79
2024/04/21 03:18:21;;;;;;;29.70;27.88;;;;;;;-143.39;100.00;64013.03;5381409;26;20000;-80
2024/04/21 03:20:55;;;;;;;27.48;25.77;;;;;;;-143.39;100.00;64013.03;5380267;26;20043;-80
2024/04/21 03:23:24;;;;;;;23.77;22.40;;;;;;;-143.39;100.00;64013.03;5382715;26;20000;-80
2024/04/21 03:25:53;;;;;;;23.45;22.05;;;;;;;-143.39;100.00;64013.03;5380055;26;20001;-81
2024/04/21 03:28:22;;;;;;;24.48;22.98;;;;;;;-143.39;100.00;64013.03;5382318;26;20328;-80
2024/04/21 03:31:01;;;;;;;23.50;22.10;;;;;;;-143.39;100.00;64013.03;5380371;26;20001;-81
2024/04/21 03:33:37;;;;;;;24.35;22.75;;;;;;;-143.39;100.00;64013.03;5381976;26;20011;-80
2024/04/21 03:36:04;;;;;;;25.30;23.80;;;;;;;-143.39;100.00;64013.03;5379456;26;20453;-81
2024/04/21 03:38:33;;;;;;;25.70;24.00;;;;;;;-143.39;100.00;64013.03;5381645;26;20004;-81
2024/04/21 03:41:11;;;;;;;26.42;24.70;;;;;;;-143.39;100.00;64013.03;5379723;26;20018;-81
2024/04/21 03:43:40;;;;;;;25.80;24.30;;;;;;;-143.39;100.00;64013.03;5379142;26;20521;-81
2024/04/21 03:46:11;;;;;;;24.90;23.38;;;;;;;-143.39;100.00;64013.03;5379923;26;20018;-81
2024/04/21 03:48:37;;;;;;;25.48;23.92;;;;;;;-143.39;100.00;64013.03;5379625;26;20004;-81
2024/04/21 03:51:06;;;;;;;25.90;24.40;;;;;;;-143.39;100.00;64013.03;5382264;26;20436;-81
2024/04/21 03:53:32;;;;;;;26.48;24.88;;;;;;;-143.39;100.00;64013.03;5379894;26;20004;-80
2024/04/21 03:56:01;;;;;;;23.52;22.13;;;;;;;-143.39;100.00;64013.03;5382504;26;20895;-80
2024/04/21 03:58:30;;;;;;;24.00;22.60;;;;;;;-143.39;100.00;64013.03;5345680;26;20015;-80
2024/04/21 04:00:59;;;;;;;21.77;20.48;;;;;;;-143.39;100.00;64013.03;5347732;26;20001;-80
2024/04/21 04:03:25;;;;;;;22.02;20.73;;;;;;;-143.39;100.00;64013.03;5374627;26;20019;-81
2024/04/21 04:05:57;;;;;;;21.30;19.88;;;;;;;-143.39;100.00;64013.03;5382762;26;20077;-80
2024/04/21 04:08:28;;;;;;;21.15;19.85;;;;;;;-143.39;100.00;64013.03;5380417;26;20004;-81
2024/04/21 04:10:57;;;;;;;22.90;21.52;;;;;;;-143.39;100.00;64013.03;5382888;26;20040;-81
2024/04/21 04:13:23;;;;;;;22.95;21.45;;;;;;;-143.39;100.00;64013.03;5380087;26;20050;-81
2024/04/21 04:15:55;;;;;;;22.85;21.23;;;;;;;-143.39;100.00;64013.03;5382669;26;19996;-81
2024/04/21 04:18:21;;;;;;;23.60;22.10;;;;;;;-143.39;100.00;64013.03;5380320;26;20004;-81
2024/04/21 04:20:50;;;;;;;24.23;22.60;;;;;;;-143.39;100.00;64013.03;5381897;26;20011;-80
2024/04/21 04:23:21;;;;;;;24.10;22.60;;;;;;;-143.39;100.00;64013.03;5379272;26;20000;-81
2024/04/21 04:25:59;;;;;;;23.48;22.08;;;;;;;-143.39;100.00;64013.03;5382359;26;20004;-81
2024/04/21 04:28:25;;;;;;;27.45;25.42;;;;;;;-143.39;100.00;64013.03;5379870;26;20015;-81
2024/04/21 04:30:59;;;;;;;25.85;24.15;;;;;;;-143.39;100.00;64013.03;5382728;26;20001;-80
2024/04/21 04:33:26;;;;;;;27.15;25.45;;;;;;;-143.39;100.00;64013.03;5377027;26;20004;-79
2024/04/21 04:35:57;;;;;;;28.13;26.23;;;;;;;-143.39;100.00;64013.03;5380294;26;20004;-80
2024/04/21 04:38:23;;;;;;;29.88;27.67;;;;;;;-143.39;100.00;64013.03;5377859;26;20158;-80
2024/04/21 04:40:52;;;;;;;28.85;26.85;;;;;;;-143.39;100.00;64013.03;5380186;26;20085;-80
2024/04/21 04:43:18;;;;;;;33.00;30.48;;;;;;;-143.39;100.00;64013.03;5377901;26;20379;-80
2024/04/21 04:45:47;;;;;;;36.00;32.33;;;;;;;-143.39;100.00;64013.03;5379692;26;20011;-80
2024/04/21 04:48:16;;;;;;;40.95;37.72;;;;;;;-143.39;100.00;64013.03;5376276;26;20015;-81
2024/04/21 04:50:44;;;;;;;33.17;30.77;;;;;;;-143.39;100.00;64013.03;5380506;26;20003;-80
2024/04/21 04:53:11;;;;;;;37.80;34.85;;;;;;;-143.39;100.00;64013.03;5377040;26;20000;-80
2024/04/21 04:55:39;;;;;;;36.60;33.88;;;;;;;-143.39;100.00;64013.03;5380089;26;19996;-80
2024/04/21 04:58:09;;;;;;;34.58;32.20;;;;;;;-143.39;100.00;64013.03;5376977;26;20000;-80
2024/04/21 05:00:35;;;;;;;34.58;32.28;;;;;;;-143.39;100.00;64013.03;5376739;26;20087;-80
2024/04/21 05:03:03;;;;;;;34.92;32.53;;;;;;;-143.39;100.00;64013.03;5378936;26;20000;-80
2024/04/21 05:05:38;;;;;;;41.35;38.17;;;;;;;-143.39;100.00;64013.03;5371317;26;20103;-81
2024/04/21 05:08:08;;;;;;;45.42;41.63;;;;;;;-143.39;100.00;64013.03;5381670;26;20004;-81
2024/04/21 05:10:35;;;;;;;41.95;38.50;;;;;;;-143.39;100.00;64013.03;5379861;26;20320;-82
2024/04/21 05:13:03;;;;;;;44.47;41.13;;;;;;;-143.39;100.00;64013.03;5381585;26;20001;-81
2024/04/21 05:15:30;;;;;;;52.65;48.05;;;;;;;-143.39;100.00;64013.03;5344753;26;20005;-81
2024/04/21 05:17:59;;;;;;;46.47;42.78;;;;;;;-143.39;100.00;64013.03;5347006;26;20005;-81
2024/04/21 05:20:25;;;;;;;48.63;44.75;;;;;;;-143.39;100.00;64013.03;5379707;26;20077;-81
2024/04/21 05:22:57;;;;;;;42.28;39.03;;;;;;;-143.39;100.00;64013.03;5380145;26;20042;-81
2024/04/21 05:25:25;;;;;;;38.07;35.37;;;;;;;-143.39;100.00;64013.03;5376190;26;20436;-81
2024/04/21 05:27:59;;;;;;;33.10;30.90;;;;;;;-143.39;100.00;64013.03;5381181;26;20015;-81
2024/04/21 05:30:26;;;;;;;35.92;33.22;;;;;;;-143.39;100.00;64013.03;5369920;26;20005;-81
2024/04/21 05:32:56;;;;;;;45.47;42.03;;;;;;;-143.39;100.00;64013.03;5381247;26;20000;-81
2024/04/21 05:35:26;;;;;;;34.65;32.35;;;;;;;-143.39;100.00;64013.03;5378471;26;20563;-81
2024/04/21 05:37:57;;;;;;;38.42;35.38;;;;;;;-143.39;100.00;64013.03;5372466;26;20011;-81
2024/04/21 05:40:24;;;;;;;35.20;32.60;;;;;;;-143.39;100.00;64013.03;5365193;26;20375;-81
2024/04/21 05:42:53;;;;;;;35.88;33.47;;;;;;;-143.39;100.00;64013.03;5380479;26;20037;-81
2024/04/21 05:45:19;;;;;;;37.15;34.42;;;;;;;-143.39;100.00;64013.03;5377932;26;20443;-81
2024/04/21 05:47:48;;;;;;;33.25;31.08;;;;;;;-143.39;100.00;64013.03;5379096;26;20337;-81
2024/04/21 05:50:14;;;;;;;33.13;30.92;;;;;;;-143.39;100.00;64013.03;5367932;26;20001;-80
2024/04/21 05:52:43;;;;;;;33.80;31.50;;;;;;;-143.39;100.00;64013.03;5377692;26;20004;-80
2024/04/21 05:55:12;;;;;;;34.30;31.88;;;;;;;-143.39;100.00;64013.03;5376370;26;20044;-81
2024/04/21 05:57:40;;;;;;;39.70;36.75;;;;;;;-143.39;100.00;64013.03;5379600;26;20036;-81
2024/04/21 06:00:07;;;;;;;36.15;33.53;;;;;;;-143.39;100.00;64013.03;5379147;26;20000;-81
2024/04/21 06:02:36;;;;;;;36.95;34.60;;;;;;;-143.39;100.00;64013.03;5383716;26;20460;-81
2024/04/21 06:05:03;;;;;;;35.20;33.00;;;;;;;-143.39;100.00;64013.03;5375921;26;20011;-81
2024/04/21 06:07:32;;;;;;;31.88;29.88;;;;;;;-143.39;100.00;64013.03;5381709;26;20004;-80
2024/04/21 06:09:59;;;;;;;35.15;32.47;;;;;;;-143.39;100.00;64013.03;5373389;26;20452;-80
2024/04/21 06:12:30;;;;;;;34.33;32.13;;;;;;;-143.39;100.00;64013.03;5382269;26;20436;-81
2024/04/21 06:14:57;;;;;;;32.00;29.90;;;;;;;-143.39;100.00;64013.03;5380221;26;20076;-80
2024/04/21 06:17:26;;;;;;;35.83;33.47;;;;;;;-143.39;100.00;64013.03;5383971;26;20015;-80
2024/04/21 06:19:52;;;;;;;34.45;32.25;;;;;;;-143.39;100.00;64013.03;5379851;26;20008;-80
2024/04/21 06:22:21;;;;;;;33.45;31.35;;;;;;;-143.39;100.00;64013.03;5381319;26;20008;-80
2024/04/21 06:24:47;;;;;;;33.25;30.70;;;;;;;-143.39;100.00;64013.03;5377908;26;20002;-80
2024/04/21 06:27:16;;;;;;;30.83;28.92;;;;;;;-143.39;100.00;64013.03;5379666;26;20436;-81
2024/04/21 06:29:45;;;;;;;28.98;27.17;;;;;;;-143.39;100.00;64013.03;5371055;26;20004;-81
2024/04/21 06:32:14;;;;;;;29.58;27.65;;;;;;;-143.39;100.00;64013.03;5379235;26;20455;-81
2024/04/21 06:34:40;;;;;;;34.97;32.78;;;;;;;-143.39;100.00;64013.03;5378261;26;20015;-81
2024/04/21 06:37:09;;;;;;;31.02;28.92;;;;;;;-143.39;100.00;64013.03;5373611;26;20008;-80
2024/04/21 06:39:35;;;;;;;32.10;29.80;;;;;;;-143.39;100.00;64013.03;5379439;26;20004;-81
2024/04/21 06:42:07;;;;;;;30.13;28.02;;;;;;;-143.39;100.00;64013.03;5377605;26;20015;-81
2024/04/21 06:44:39;;;;;;;31.00;28.90;;;;;;;-143.39;100.00;64013.03;5380799;26;20004;-80
2024/04/21 06:47:13;;;;;;;31.05;28.95;;;;;;;-143.39;100.00;64013.03;5374894;26;20008;-81
2024/04/21 06:49:39;;;;;;;33.63;31.13;;;;;;;-143.39;100.00;64013.03;5380074;26;20440;-82
2024/04/21 06:52:09;;;;;;;35.28;32.60;;;;;;;-143.39;100.00;64013.03;5374241;26;20455;-81
2024/04/21 06:54:35;;;;;;;30.60;28.40;;;;;;;-143.39;100.00;64013.03;5379019;26;20000;-81
2024/04/21 06:57:09;;;;;;;33.22;30.92;;;;;;;-143.39;100.00;64013.03;5376233;26;20847;-81
2024/04/21 06:59:35;;;;;;;33.00;30.73;;;;;;;-143.39;100.00;64013.03;5366559;26;20040;-81
2024/04/21 07:02:04;;;;;;;32.00;29.80;;;;;;;-143.39;100.00;64013.03;5380611;26;20000;-80
2024/04/21 07:04:33;;;;;;;32.95;30.65;;;;;;;-143.39;100.00;64013.03;5349540;26;20271;-81
2024/04/21 07:07:02;;;;;;;33.25;30.95;;;;;;;-143.39;100.00;64013.03;5378294;26;20018;-81
2024/04/21 07:09:29;;;;;;;34.50;32.10;;;;;;;-143.39;100.00;64013.03;5373466;26;20004;-81
2024/04/21 07:11:58;;;;;;;33.75;31.35;;;;;;;-143.39;100.00;64013.03;5378202;26;20000;-81
2024/04/21 07:14:24;;;;;;;32.42;30.02;;;;;;;-143.39;100.00;64013.03;5378531;26;20059;-81
2024/04/21 07:16:55;;;;;;;33.67;31.27;;;;;;;-143.39;100.00;64013.03;5381340;26;20000;-81
2024/04/21 07:19:21;;;;;;;36.13;33.63;;;;;;;-143.39;100.00;64013.03;5379435;26;20044;-81
2024/04/21 07:21:57;;;;;;;40.30;37.60;;;;;;;-143.39;100.00;64013.03;5381846;26;20004;-83
2024/04/21 07:24:31;;;;;;;44.78;40.95;;;;;;;-143.39;100.00;64013.03;5379645;26;20344;-81
2024/04/21 07:27:08;;;;;;;36.60;34.05;;;;;;;-143.39;100.00;64013.03;5383650;26;20010;-80
2024/04/21 07:29:34;;;;;;;36.38;33.80;;;;;;;-143.39;100.00;64013.03;5380347;26;20015;-80
2024/04/21 07:32:03;;;;;;;35.72;33.13;;;;;;;-143.39;100.00;64013.03;5383119;26;20011;-80
2024/04/21 07:34:33;;;;;;;36.33;33.72;;;;;;;-143.39;100.00;64013.03;5380964;26;20001;-82
2024/04/21 07:37:05;;;;;;;87.95;83.30;;;;;;;-143.39;100.00;64013.03;5381475;26;20032;-82
2024/04/21 07:39:31;;;;;;;74.78;70.55;;;;;;;-143.39;100.00;64013.03;5378922;26;20019;-82
2024/04/21 07:42:00;;;;;;;79.40;75.00;;;;;;;-143.39;100.00;64013.03;5381083;26;20001;-82
2024/04/21 07:44:27;;;;;;;79.88;75.47;;;;;;;-143.39;100.00;64013.03;5377936;26;20012;-82
2024/04/21 07:46:56;;;;;;;80.28;75.88;;;;;;;-143.39;100.00;64013.03;5380287;26;20012;-81
2024/04/21 07:49:25;;;;;;;79.07;74.78;;;;;;;-143.39;100.00;64013.03;5377660;26;20314;-82
2024/04/21 07:51:54;;;;;;;79.93;75.55;;;;;;;-143.39;100.00;64013.03;5380438;26;20859;-81
2024/04/21 07:54:24;;;;;;;73.03;68.93;;;;;;;-143.39;100.00;64013.03;5378240;26;20004;-81
2024/04/21 07:56:56;;;;;;;72.18;68.18;;;;;;;-143.39;100.00;64013.03;5379909;26;20008;-82
2024/04/21 07:59:25;;;;;;;74.33;70.30;;;;;;;-143.39;100.00;64013.03;5378454;26;20008;-82
2024/04/21 08:01:53;;;;;;;73.78;69.68;;;;;;;-143.39;100.00;64013.03;5379799;26;20793;-81
2024/04/21 08:04:20;;;;;;;72.40;68.38;;;;;;;-143.39;100.00;64013.03;5377380;26;19996;-82
2024/04/21 08:06:48;;;;;;;83.75;79.25;;;;;;;-143.39;100.00;64013.03;5372260;26;20048;-81
2024/04/21 08:09:15;;;;;;;83.75;79.25;;;;;;;-143.39;100.00;64013.03;5377697;26;20053;-81
2024/04/21 08:11:46;;;;;;;47.05;44.05;;;;;;;-143.39;100.00;64013.03;5379679;26;20012;-82
2024/04/21 08:14:12;;;;;;;80.63;76.22;;;;;;;-143.39;100.00;64013.03;5378047;26;20004;-82
2024/04/21 08:16:43;;;;;;;86.43;81.82;;;;;;;-143.39;100.00;64013.03;5375933;26;20440;-82
2024/04/21 08:19:09;;;;;;;88.95;84.25;;;;;;;-143.39;100.00;64013.03;5377550;26;20041;-81
2024/04/21 08:21:37;;;;;;;91.18;86.38;;;;;;;-143.39;100.00;64013.03;5379662;26;20950;-82
2024/04/21 08:24:04;;;;;;;34.70;32.10;;;;;;;-143.39;100.00;64013.03;5373522;26;20367;-82
2024/04/21 08:26:33;;;;;;;35.08;32.42;;;;;;;-143.39;100.00;64013.03;5380070;26;20018;-81
2024/04/21 08:29:02;;;;;;;34.08;31.48;;;;;;;-143.39;100.00;64013.03;5377261;26;20004;-84
2024/04/21 08:31:31;;;;;;;35.50;32.80;;;;;;;-143.39;100.00;64013.03;5380586;26;20566;-84
2024/04/21 08:33:58;;;;;;;56.67;53.17;;;;;;;-143.39;100.00;64013.03;5378776;26;20048;-84
2024/04/21 08:36:33;;;;;;;60.47;56.67;;;;;;;-143.39;100.00;64013.03;5382646;26;20004;-84
2024/04/21 08:38:59;;;;;;;49.90;46.60;;;;;;;-143.39;100.00;64013.03;5379877;26;20023;-84
2024/04/21 08:41:33;;;;;;;48.25;45.25;;;;;;;-143.39;100.00;64013.03;5381654;26;20016;-84
2024/04/21 08:44:03;;;;;;;45.35;42.47;;;;;;;-143.39;100.00;64013.03;5378810;26;20022;-84
2024/04/21 08:46:33;;;;;;;35.55;32.95;;;;;;;-143.39;100.00;64013.03;5382042;26;20069;-84
2024/04/21 08:48:59;;;;;;;36.10;33.50;;;;;;;-143.39;100.00;64013.03;5368158;26;20051;-83
2024/04/21 08:51:29;;;;;;;32.50;30.20;;;;;;;-143.39;100.00;64013.03;5381328;26;20528;-82
2024/04/21 08:53:57;;;;;;;34.47;31.88;;;;;;;-143.39;100.00;64013.03;5378943;26;20051;-84
2024/04/21 08:56:32;;;;;;;33.83;31.23;;;;;;;-143.39;100.00;64013.03;5381796;26;20063;-84
2024/04/21 08:59:03;;;;;;;34.28;31.70;;;;;;;-143.39;100.00;64013.03;5370675;26;20440;-82
2024/04/21 09:01:32;;;;;;;34.60;31.67;;;;;;;-143.39;100.00;64013.03;5379181;26;20004;-83
2024/04/21 09:04:02;;;;;;;38.03;35.22;;;;;;;-143.39;100.00;64013.03;5369337;26;20008;-83
2024/04/21 09:06:32;;;;;;;35.22;32.45;;;;;;;-143.39;100.00;64013.03;5363583;26;20015;-83
2024/04/21 09:09:00;;;;;;;37.95;35.05;;;;;;;-143.39;100.00;64013.03;5366747;26;20018;-82
2024/04/21 09:11:31;;;;;;;40.85;37.85;;;;;;;-143.39;100.00;64013.03;5369854;26;20015;-83
2024/04/21 09:13:57;;;;;;;41.63;38.42;;;;;;;-143.39;100.00;64013.03;5358289;26;20046;-84
2024/04/21 09:16:29;;;;;;;40.53;37.33;;;;;;;-143.39;100.00;64013.03;5376037;26;20077;-83
2024/04/21 09:18:56;;;;;;;40.78;37.58;;;;;;;-143.39;100.00;64013.03;5358465;26;20004;-82
2024/04/21 09:21:25;;;;;;;41.60;38.20;;;;;;;-143.39;100.00;64013.03;5378123;26;20012;-83
2024/04/21 09:23:57;;;;;;;46.00;42.70;;;;;;;-143.39;100.00;64013.03;5376571;26;20130;-82
2024/04/21 09:26:27;;;;;;;39.60;36.60;;;;;;;-143.39;100.00;64013.03;5379742;26;20790;-82
2024/04/21 09:28:53;;;;;;;45.55;42.25;;;;;;;-143.39;100.00;64013.03;5377163;26;20036;-83
2024/04/21 09:31:22;;;;;;;41.20;38.15;;;;;;;-143.39;100.00;64013.03;5379943;26;20392;-83
2024/04/21 09:33:54;;;;;;;43.05;39.78;;;;;;;-143.39;100.00;64013.03;5378358;26;20012;-83
2024/04/21 09:36:26;;;;;;;45.10;41.30;;;;;;;-143.39;100.00;64013.03;5375110;26;20041;-82
2024/04/21 09:38:53;;;;;;;40.78;37.47;;;;;;;-143.39;100.00;64013.03;5370661;26;20036;-82
2024/04/21 09:41:25;;;;;;;40.10;36.70;;;;;;;-143.39;100.00;64013.03;5381882;26;20000;-83
2024/04/21 09:43:51;;;;;;;42.40;38.78;;;;;;;-143.39;100.00;64013.03;5379709;26;19996;-82
2024/04/21 09:46:26;;;;;;;43.30;39.63;;;;;;;-143.39;100.00;64013.03;5380690;26;20329;-83
2024/04/21 09:48:56;;;;;;;46.63;42.83;;;;;;;-143.39;100.00;64013.03;5377739;26;20008;-82
2024/04/21 09:51:28;;;;;;;44.00;40.38;;;;;;;-143.39;100.00;64013.03;5380066;26;20085;-83
2024/04/21 09:53:56;;;;;;;43.00;39.60;;;;;;;-143.39;100.00;64013.03;5379228;26;20005;-82
2024/04/21 09:56:40;;;;;;;42.20;39.00;;;;;;;-143.39;100.00;64013.03;5366541;26;20000;-83
2024/04/21 09:59:16;;;;;;;46.63;42.30;;;;;;;-143.39;100.00;64013.03;5382514;26;20019;-83
2024/04/21 10:01:51;;;;;;;43.78;40.35;;;;;;;-143.39;100.00;64013.03;5383302;26;20081;-84
2024/04/21 10:04:27;;;;;;;41.03;37.53;;;;;;;-143.39;100.00;64013.03;5382097;26;20018;-83
2024/04/21 10:06:57;;;;;;;41.45;37.95;;;;;;;-143.39;100.00;64013.03;5378666;26;20008;-85
2024/04/21 10:09:27;;;;;;;43.25;39.42;;;;;;;-143.39;100.00;64013.03;5381820;26;20018;-84
2024/04/21 10:12:01;;;;;;;43.63;39.67;;;;;;;-143.39;100.00;64013.03;5350470;26;20012;-84
2024/04/21 10:14:28;;;;;;;44.92;41.00;;;;;;;-143.39;100.00;64013.03;5346663;26;20484;-83
2024/04/21 10:16:58;;;;;;;44.95;41.35;;;;;;;-143.39;100.00;64013.03;5380126;26;20015;-83
2024/04/21 10:19:27;;;;;;;43.70;40.10;;;;;;;-143.39;100.00;64013.03;5381526;26;20208;-83
2024/04/21 10:22:06;;;;;;;45.42;41.20;;;;;;;-143.39;100.00;64013.03;5384376;26;20015;-83
2024/04/21 10:24:35;;;;;;;74.30;70.00;;;;;;;-143.39;100.00;64013.03;5381654;26;20091;-83
2024/04/21 10:27:05;;;;;;;88.80;83.90;;;;;;;-143.39;100.00;64013.03;5382341;26;20037;-82
2024/04/21 10:29:32;;;;;;;90.82;85.82;;;;;;;-143.39;100.00;64013.03;5378993;26;20015;-83
2024/04/21 10:32:16;;;;;;;48.15;45.00;;;;;;;-143.39;100.00;64013.03;5382605;26;20356;-83
2024/04/21 10:34:49;;;;;;;35.47;32.78;;;;;;;-143.39;100.00;64013.03;5380918;26;20008;-83
2024/04/21 10:37:23;;;;;;;36.38;33.58;;;;;;;-143.39;100.00;64013.03;5383342;26;20000;-83
2024/04/21 10:39:49;;;;;;;40.70;37.55;;;;;;;-143.39;100.00;64013.03;5380884;26;20340;-83
2024/04/21 10:42:19;;;;;;;39.13;35.92;;;;;;;-143.39;100.00;64013.03;5382690;26;20004;-83
2024/04/21 10:44:45;;;;;;;34.97;32.17;;;;;;;-143.39;100.00;64013.03;5379968;26;20411;-83
2024/04/21 10:47:14;;;;;;;49.10;45.60;;;;;;;-143.39;100.00;64013.03;5381415;26;20000;-84
2024/04/21 10:49:41;;;;;;;54.33;50.40;;;;;;;-143.39;100.00;64013.03;5380379;26;20005;-83
2024/04/21 10:52:12;;;;;;;37.55;34.45;;;;;;;-143.39;100.00;64013.03;5382710;26;20078;-83
2024/04/21 10:54:39;;;;;;;37.97;34.97;;;;;;;-143.39;100.00;64013.03;5380321;26;20081;-83
2024/04/21 10:57:09;;;;;;;40.05;36.85;;;;;;;-143.39;100.00;64013.03;5383948;26;20101;-84
2024/04/21 10:59:58;;;;;;;39.55;36.45;;;;;;;-143.39;100.00;64013.03;5380686;26;20019;-83
2024/04/21 11:02:27;;;;;;;46.15;43.03;;;;;;;-143.39;100.00;64013.03;5381938;26;20037;-83